Shimonoseki, Japan
Current Conditions -  °F | °C
As of 9:00 AM on Saturday 20 Dec 2014 (Local Time) from RJFR Reporting Station
Light Rain Light Rain  
Wind Chill: 45°   Ceiling: 4500
Heat Index: 45°   Visibility: 4mi
Dew Point: 45°   Wind: 2mph
Humidity: 100%   Direction: NA
Pressure: 30.03"   Gusts: NA
Location:  33.96°N, 130.94°E
Report Text: RJFR 200000Z VRB02KT 7000 -RA FEW012 SCT030 BKN045 07/07 Q1017
Loading
Personal Weather Stations






























Interactive Weather Map New forecast layout! Learn more

10-Day Weather Forecast

Advertisements
Track Severe Weather on mobile